• Join FlightAware (Why Join?)
  • Login
  • US Flag 
02:14AM EDT


 

Airport Tracker/Info


-or-


 

Live Flight TrackerFlight Track Log ✈ OPT429 ✈ 02-Jul-2014 ✈ KPWK - KELM

Flight Track Log - Related Links

Times and Time Zones

All times are in EDT time to prevent confusion due to time zone crossing. See the OPT429 flight status page for this flight to view local times or setup timezone preferences in your user account.

Time Position Orientation Groundspeed Altitude Reporting Facility
EDT Latitude Longitude Course Direction KTS MPH feet Rate Location/Type
01:21PM 42.1500 -87.9000 37° Northeast 190 219 2,200  Level Chicago TRACON
01:22PM 42.2000 -87.8500 37° Northeast 233 268 3,800 1,860 Climbing Chicago TRACON
01:23PM 42.2000 -87.7833 90° East 234 269 5,800 1,740 Climbing Chicago TRACON
01:24PM 42.1706 -87.6969 115° Southeast 237 273 7,400 2,220 Climbing Chicago Center
01:25PM 42.1519 -87.6125 107° East 235 270 10,500 2,520 Climbing Chicago Center
01:26PM 42.1428 -87.5061 97° East 269 310 12,700 2,100 Climbing Chicago Center
01:27PM 42.1350 -87.3808 95° East 329 379 14,900 1,560 Climbing Chicago Center
01:28PM 42.1247 -87.2472 96° East 355 409 16,000 1,680 Climbing Chicago Center
01:29PM 42.1156 -87.1003 95° East 385 443 18,400 2,100 Climbing Chicago Center
01:30PM 42.1144 -86.9586 91° East 381 438 20,400 1,920 Climbing Chicago Center
01:31PM 42.1219 -86.8172 86° East 381 438 22,500 1,860 Climbing Chicago Center
01:32PM 42.1272 -86.6544 87° East 388 447 24,300 1,620 Climbing Chicago Center
01:33PM 42.1319 -86.5081 87° East 389 448 25,900 1,440 Climbing Chicago Center
01:34PM 42.1378 -86.3564 87° East 399 459 27,300 1,440 Climbing Chicago Center
01:35PM 42.1411 -86.2042 88° East 404 465 28,900 1,560 Climbing Chicago Center
01:36PM 42.1444 -86.0486 88° East 409 471 30,600 1,980 Climbing Chicago Center
01:37PM 42.1406 -85.8744 92° East 413 475 33,000 1,860 Climbing Chicago Center
01:38PM 42.1194 -85.7256 101° East 409 471 34,500 1,200 Climbing Chicago Center
01:39PM 42.0953 -85.5717 102° East 420 483 35,500 780 Climbing Chicago Center
01:40PM 42.0639 -85.3761 102° East 446 513 36,200 900 Climbing Chicago Center
01:41PM 42.0397 -85.2025 101° East 469 540 37,400 1,200 Climbing Chicago Center
01:42PM 42.0228 -85.0317 98° East 470 541 38,800 1,200 Climbing Chicago Center
01:43PM 42.0281 -84.8564 88° East 469 540 39,900 960 Climbing Chicago Center
01:44PM 42.0369 -84.6842 86° East 469 540 40,800 660 Climbing Chicago Center
01:45PM 42.0433 -84.5519 86° East 470 541 41,000 120 Climbing Cleveland Center
01:46PM 42.0517 -84.3728 86° East 478 550 41,000  Level Cleveland Center
01:47PM 42.0603 -84.2047 86° East 477 549 41,000  Level Cleveland Center
01:48PM 42.0683 -84.0247 86° East 480 552 41,000  Level Cleveland Center
01:49PM 42.0772 -83.8108 87° East 481 554 41,000  Level Cleveland Center
01:50PM 42.0844 -83.6339 87° East 479 551 41,000  Level Cleveland Center
01:51PM 42.0922 -83.4589 87° East 479 551 41,000  Level Cleveland Center
01:52PM 42.0989 -83.2772 87° East 480 552 41,000  Level Cleveland Center
01:53PM 42.1078 -83.0733 87° East 478 550 41,000  Level Cleveland Center
01:54PM 42.1144 -82.8969 87° East 476 548 41,000  Level Cleveland Center
01:55PM 42.1197 -82.7200 88° East 476 548 41,000  Level Cleveland Center
01:56PM 42.1281 -82.5392 86° East 480 552 41,000  Level Cleveland Center
01:57PM 42.1339 -82.3586 87° East 482 555 41,000  Level Cleveland Center
01:58PM 42.1389 -82.1786 88° East 483 556 41,000  Level Cleveland Center
01:59PM 42.1444 -81.9797 88° East 478 550 41,000  Level Cleveland Center
02:00PM 42.1492 -81.8025 88° East 470 541 41,000  Level Cleveland Center
02:02PM 42.1544 -81.6269 88° East 468 539 41,000  Level Cleveland Center
02:03PM 42.1575 -81.4522 89° East 463 533 41,000  Level Cleveland Center
02:04PM 42.1622 -81.2842 88° East 450 518 41,000  Level Cleveland Center
02:05PM 42.1658 -81.1172 88° East 441 507 41,000  Level Cleveland Center
02:06PM 42.1692 -80.9267 89° East 435 501 41,000  Level Cleveland Center
02:07PM 42.1600 -80.7667 94° East 426 490 41,000  Level Cleveland Center
02:08PM 42.1464 -80.6081 97° East 420 483 41,000  Level Cleveland Center
02:09PM 42.1319 -80.4486 97° East 425 489 41,000  Level Cleveland Center
02:10PM 42.1169 -80.2869 97° East 427 491 41,000  Level Cleveland Center
02:11PM 42.1025 -80.1253 97° East 430 495 41,000  Level Cleveland Center
02:12PM 42.0875 -79.9706 97° East 434 499 41,000  Level Cleveland Center
02:13PM 42.0681 -79.7792 98° East 433 498 41,000  Level Cleveland Center
02:14PM 42.0528 -79.6172 97° East 435 501 41,000  Level Cleveland Center
02:15PM 42.0369 -79.4567 98° East 435 501 41,000  Level Cleveland Center
02:16PM 42.0208 -79.2981 98° East 435 501 41,000  Level Cleveland Center
02:17PM 42.0044 -79.1386 98° East 435 501 41,000  Level Cleveland Center
02:18PM 41.9878 -78.9792 98° East 434 499 41,000  Level Cleveland Center
02:19PM 41.9692 -78.7911 98° East 427 491 41,000  Level Cleveland Center
02:20PM 41.9531 -78.6350 98° East 425 489 41,000  Level Cleveland Center
02:21PM 41.9353 -78.4797 99° East 424 488 41,000  Level Cleveland Center
02:22PM 41.9186 -78.3256 98° East 422 486 41,000  Level Cleveland Center
02:23PM 41.9019 -78.1731 98° East 421 484 41,000  Level Cleveland Center
02:24PM 41.8844 -78.0214 99° East 418 481 41,000  Level Cleveland Center
02:25PM 41.8636 -77.8389 99° East 417 480 41,000  Level Cleveland Center
02:26PM 41.8800 -77.6814 82° East 438 504 41,000  Level Cleveland Center
02:27PM 41.9750 -77.5889 36° Northeast 428 493 41,000  Level Cleveland Center
02:28PM 42.0492 -77.6728 320° Northwest 373 429 41,000  Level Cleveland Center
02:29PM 42.0525 -77.7942 272° West 330 380 41,000  Level Cleveland Center
02:30PM 42.0708 -77.9178 281° West 333 383 41,000  Level Cleveland Center
02:31PM 42.0928 -78.0389 284° West 333 383 41,000  Level Cleveland Center
02:32PM 42.0914 -78.1533 269° West 317 365 41,000  Level Cleveland Center
02:33PM 42.0158 -78.2103 209° Southwest 301 346 41,000  Level Cleveland Center
02:35PM 41.9292 -78.1583 156° South 326 375 41,000  Level Cleveland Center
02:36PM 41.9003 -78.0461 109° East 362 417 41,000  Level Cleveland Center
02:37PM 41.8717 -77.8892 104° East 364 419 41,000  Level Cleveland Center
02:38PM 41.8722 -77.7550 90° East 380 437 41,000  Level Cleveland Center
02:39PM 41.9536 -77.7000 27° Northeast 376 433 41,000  Level Cleveland Center
02:40PM 42.0108 -77.8067 306° West 312 359 41,000  Level Cleveland Center
02:41PM 42.0297 -77.9128 284° West 294 338 41,000  Level Cleveland Center
02:42PM 42.0497 -78.0208 284° West 294 338 41,000  Level Cleveland Center
02:43PM 42.0431 -78.1294 265° West 298 343 41,000  Level Cleveland Center
02:44PM 41.9711 -78.1683 202° Southwest 293 337 41,000  Level Cleveland Center
02:45PM 41.9056 -78.0775 134° Southeast 354 407 41,000  Level Cleveland Center
02:46PM 41.8797 -77.9322 103° East 389 448 41,000  Level Cleveland Center
02:47PM 41.8608 -77.7872 100° East 398 458 41,000  Level Cleveland Center
02:48PM 41.9544 -77.6778 41° Northeast 405 466 41,000  Level Cleveland Center
02:49PM 42.0233 -77.7658 316° Northwest 370 426 41,000  Level Cleveland Center
02:50PM 42.0442 -77.8886 283° West 344 396 41,000  Level Cleveland Center
02:51PM 42.0661 -78.0103 284° West 338 389 41,000  Level Cleveland Center
02:52PM 42.0742 -78.1342 275° West 336 387 41,000  Level Cleveland Center
02:53PM 41.9942 -78.2019 212° Southwest 314 361 41,000  Level Cleveland Center
02:54PM 41.9164 -78.1231 143° Southeast 356 410 41,000  Level Cleveland Center
02:55PM 41.8906 -77.9889 104° East 387 445 41,000  Level Cleveland Center
02:56PM 41.8644 -77.8506 104° East 387 445 41,000  Level Cleveland Center
02:57PM 41.8892 -77.7153 76° East 401 461 41,000  Level Cleveland Center
02:58PM 41.9892 -77.7114 North 375 432 41,000  Level Cleveland Center
02:59PM 42.0131 -77.8208 286° West 313 360 41,000  Level Cleveland Center
03:00PM 42.0225 -77.9364 276° West 312 359 41,000  Level Cleveland Center
03:01PM 41.9783 -78.0567 244° Southwest 301 346 41,000 -1,380 Level Cleveland Center
03:03PM 41.9619 -78.2867 78° East 329 379 36,800 -2,040 Descending Cleveland Center
03:04PM 41.9503 -78.4353 264° West 334 384 34,800 -1,620 Descending Cleveland Center
03:05PM 42.0181 -78.5181 318° Northwest 372 428 33,500 -1,800 Descending Cleveland Center
03:06PM 42.1028 -78.4267 39° Northeast 411 473 31,200 -2,640 Descending Cleveland Center
03:07PM 42.1283 -78.2717 77° East 422 486 28,200 -2,880 Descending Cleveland Center
03:08PM 42.1383 -78.1036 85° East 404 465 25,300 -2,700 Descending Cleveland Center
03:10PM 42.1617 -77.9636 77° East 391 450 22,700 -2,580 Descending Cleveland Center
03:11PM 42.1939 -77.8283 72° East 384 442 20,100 -2,880 Descending Cleveland Center
03:12PM 42.2175 -77.6919 77° East 385 443 16,900 -3,000 Descending Cleveland Center
03:13PM 42.2108 -77.5556 94° East 374 430 13,900 -2,820 Descending Cleveland Center
03:14PM 42.2008 -77.4228 96° East 363 418 11,200 -2,460 Descending Cleveland Center
03:15PM 42.1906 -77.2803 96° East 324 373 8,900 -2,280 Descending Cleveland Center
03:16PM 42.1819 -77.1700 96° East 304 350 6,500 -2,100 Descending Cleveland Center
03:17PM 42.1958 -77.0622 80° East 297 342 4,600 -1,320 Descending Cleveland Center
03:18PM 42.2114 -76.9686 77° East 276 318 3,800 -840 Descending Cleveland Center
03:19PM 42.2397 -76.9025 60° Northeast 236 272 2,900 -600 Descending Cleveland Center
03:20PM 42.2128 -76.8411 121° Southeast 209 241 2,600 -420 Descending Cleveland Center
03:21PM 42.1642 -76.8803 211° Southwest 200 230 2,100 2,280 Descending Cleveland Center
03:23PM 42.1508 -76.7289 97° East 142 163 9,000 2,460 Climbing New York Center
03:24PM 42.1322 -76.6853 120° Southeast 142 163 9,000  Level New York Center
03:25PM 42.1211 -76.6589 120° Southeast 142 163 9,000  Level New York Center